sensor_id;sensor_type;location;lat;lon;timestamp;P1;durP1;ratioP1;P2;durP2;ratioP2
1400;SDS011;46518;48.842;8.926;2023-10-09T00:00:13;16.27;;;6.70;;
1400;SDS011;46518;48.842;8.926;2023-10-09T00:03:03;13.10;;;6.38;;
1400;SDS011;46518;48.842;8.926;2023-10-09T00:05:33;16.35;;;6.50;;
1400;SDS011;46518;48.842;8.926;2023-10-09T00:08:13;16.10;;;6.25;;
1400;SDS011;46518;48.842;8.926;2023-10-09T00:10:47;11.00;;;6.25;;
1400;SDS011;46518;48.842;8.926;2023-10-09T00:13:20;15.63;;;7.68;;
1400;SDS011;46518;48.842;8.926;2023-10-09T00:15:55;16.10;;;7.38;;
1400;SDS011;46518;48.842;8.926;2023-10-09T00:18:28;18.98;;;8.30;;
1400;SDS011;46518;48.842;8.926;2023-10-09T00:20:57;19.05;;;6.55;;
1400;SDS011;46518;48.842;8.926;2023-10-09T00:23:38;28.77;;;7.03;;
1400;SDS011;46518;48.842;8.926;2023-10-09T00:26:08;19.25;;;5.93;;
1400;SDS011;46518;48.842;8.926;2023-10-09T00:28:47;16.00;;;6.35;;
1400;SDS011;46518;48.842;8.926;2023-10-09T00:31:18;20.30;;;8.27;;
1400;SDS011;46518;48.842;8.926;2023-10-09T00:33:56;17.73;;;5.95;;
1400;SDS011;46518;48.842;8.926;2023-10-09T00:36:34;15.27;;;6.95;;
1400;SDS011;46518;48.842;8.926;2023-10-09T00:39:17;18.17;;;7.18;;
1400;SDS011;46518;48.842;8.926;2023-10-09T00:42:09;15.50;;;6.88;;
1400;SDS011;46518;48.842;8.926;2023-10-09T00:44:41;24.23;;;8.40;;
1400;SDS011;46518;48.842;8.926;2023-10-09T00:47:10;18.25;;;6.05;;
1400;SDS011;46518;48.842;8.926;2023-10-09T00:49:50;17.60;;;6.38;;
1400;SDS011;46518;48.842;8.926;2023-10-09T00:52:28;15.10;;;7.05;;
1400;SDS011;46518;48.842;8.926;2023-10-09T00:55:04;31.23;;;8.85;;
1400;SDS011;46518;48.842;8.926;2023-10-09T00:57:43;20.15;;;6.72;;
1400;SDS011;46518;48.842;8.926;2023-10-09T01:00:23;14.90;;;6.72;;
1400;SDS011;46518;48.842;8.926;2023-10-09T01:02:58;11.43;;;5.25;;
1400;SDS011;46518;48.842;8.926;2023-10-09T01:05:47;15.52;;;7.28;;
1400;SDS011;46518;48.842;8.926;2023-10-09T01:08:24;17.38;;;7.13;;
1400;SDS011;46518;48.842;8.926;2023-10-09T01:10:56;23.98;;;6.55;;
1400;SDS011;46518;48.842;8.926;2023-10-09T01:13:27;18.75;;;7.25;;
1400;SDS011;46518;48.842;8.926;2023-10-09T01:16:06;16.83;;;7.22;;
1400;SDS011;46518;48.842;8.926;2023-10-09T01:18:39;14.38;;;7.15;;
1400;SDS011;46518;48.842;8.926;2023-10-09T01:21:10;25.38;;;7.57;;
1400;SDS011;46518;48.842;8.926;2023-10-09T01:23:43;19.55;;;6.57;;
1400;SDS011;46518;48.842;8.926;2023-10-09T01:26:30;16.00;;;6.40;;
1400;SDS011;46518;48.842;8.926;2023-10-09T01:29:06;12.13;;;6.53;;
1400;SDS011;46518;48.842;8.926;2023-10-09T01:31:37;22.38;;;5.78;;
1400;SDS011;46518;48.842;8.926;2023-10-09T01:34:11;16.45;;;7.40;;
1400;SDS011;46518;48.842;8.926;2023-10-09T01:36:41;19.35;;;6.60;;
1400;SDS011;46518;48.842;8.926;2023-10-09T01:39:11;21.15;;;6.30;;
1400;SDS011;46518;48.842;8.926;2023-10-09T01:41:50;15.15;;;5.65;;
1400;SDS011;46518;48.842;8.926;2023-10-09T01:44:25;20.70;;;6.53;;
1400;SDS011;46518;48.842;8.926;2023-10-09T01:46:56;18.70;;;6.10;;
1400;SDS011;46518;48.842;8.926;2023-10-09T01:49:25;12.85;;;5.55;;
1400;SDS011;46518;48.842;8.926;2023-10-09T01:51:59;15.50;;;5.50;;
1400;SDS011;46518;48.842;8.926;2023-10-09T01:54:35;10.45;;;5.50;;
1400;SDS011;46518;48.842;8.926;2023-10-09T01:57:08;10.02;;;5.43;;
1400;SDS011;46518;48.842;8.926;2023-10-09T01:59:40;17.13;;;6.13;;
1400;SDS011;46518;48.842;8.926;2023-10-09T02:02:12;13.63;;;5.78;;
1400;SDS011;46518;48.842;8.926;2023-10-09T02:04:53;15.35;;;6.13;;
1400;SDS011;46518;48.842;8.926;2023-10-09T02:07:33;15.07;;;6.30;;
1400;SDS011;46518;48.842;8.926;2023-10-09T02:10:10;15.00;;;6.22;;
1400;SDS011;46518;48.842;8.926;2023-10-09T02:12:48;15.88;;;6.63;;
1400;SDS011;46518;48.842;8.926;2023-10-09T02:15:20;13.25;;;5.38;;
1400;SDS011;46518;48.842;8.926;2023-10-09T02:18:08;13.10;;;4.93;;
1400;SDS011;46518;48.842;8.926;2023-10-09T02:20:46;16.55;;;5.90;;
1400;SDS011;46518;48.842;8.926;2023-10-09T02:23:22;11.55;;;6.32;;
1400;SDS011;46518;48.842;8.926;2023-10-09T02:25:58;18.23;;;6.25;;
1400;SDS011;46518;48.842;8.926;2023-10-09T02:28:31;12.95;;;5.43;;
1400;SDS011;46518;48.842;8.926;2023-10-09T02:31:01;27.17;;;7.07;;
1400;SDS011;46518;48.842;8.926;2023-10-09T02:33:37;12.43;;;6.03;;
1400;SDS011;46518;48.842;8.926;2023-10-09T02:36:07;15.77;;;7.57;;
1400;SDS011;46518;48.842;8.926;2023-10-09T02:38:36;12.90;;;4.97;;
1400;SDS011;46518;48.842;8.926;2023-10-09T02:41:09;13.68;;;5.25;;
1400;SDS011;46518;48.842;8.926;2023-10-09T02:43:50;13.57;;;6.07;;
1400;SDS011;46518;48.842;8.926;2023-10-09T02:46:21;10.43;;;6.75;;
1400;SDS011;46518;48.842;8.926;2023-10-09T02:48:56;12.82;;;5.90;;
1400;SDS011;46518;48.842;8.926;2023-10-09T02:51:25;9.70;;;5.70;;
1400;SDS011;46518;48.842;8.926;2023-10-09T02:54:01;13.32;;;5.97;;
1400;SDS011;46518;48.842;8.926;2023-10-09T02:56:46;15.02;;;6.30;;
1400;SDS011;46518;48.842;8.926;2023-10-09T02:59:22;19.27;;;6.20;;
1400;SDS011;46518;48.842;8.926;2023-10-09T03:01:50;13.95;;;5.85;;
1400;SDS011;46518;48.842;8.926;2023-10-09T03:04:20;14.20;;;6.22;;
1400;SDS011;46518;48.842;8.926;2023-10-09T03:06:51;13.48;;;6.15;;
1400;SDS011;46518;48.842;8.926;2023-10-09T03:09:24;15.35;;;5.63;;
1400;SDS011;46518;48.842;8.926;2023-10-09T03:11:58;10.30;;;5.07;;
1400;SDS011;46518;48.842;8.926;2023-10-09T03:14:32;10.05;;;4.80;;
1400;SDS011;46518;48.842;8.926;2023-10-09T03:17:02;12.52;;;5.60;;
1400;SDS011;46518;48.842;8.926;2023-10-09T03:19:31;12.48;;;6.05;;
1400;SDS011;46518;48.842;8.926;2023-10-09T03:22:04;17.90;;;5.93;;
1400;SDS011;46518;48.842;8.926;2023-10-09T03:24:38;10.63;;;5.10;;
1400;SDS011;46518;48.842;8.926;2023-10-09T03:27:10;17.13;;;6.45;;
1400;SDS011;46518;48.842;8.926;2023-10-09T03:29:38;8.82;;;5.07;;
1400;SDS011;46518;48.842;8.926;2023-10-09T03:32:07;22.70;;;6.45;;
1400;SDS011;46518;48.842;8.926;2023-10-09T03:34:35;17.02;;;7.10;;
1400;SDS011;46518;48.842;8.926;2023-10-09T03:37:03;21.13;;;5.05;;
1400;SDS011;46518;48.842;8.926;2023-10-09T03:39:37;13.43;;;6.55;;
1400;SDS011;46518;48.842;8.926;2023-10-09T03:42:07;15.57;;;5.30;;
1400;SDS011;46518;48.842;8.926;2023-10-09T03:44:46;17.50;;;6.25;;
1400;SDS011;46518;48.842;8.926;2023-10-09T03:47:22;16.17;;;5.38;;
1400;SDS011;46518;48.842;8.926;2023-10-09T03:49:51;14.45;;;5.95;;
1400;SDS011;46518;48.842;8.926;2023-10-09T03:52:21;23.30;;;6.55;;
1400;SDS011;46518;48.842;8.926;2023-10-09T03:54:53;16.00;;;5.85;;
1400;SDS011;46518;48.842;8.926;2023-10-09T03:57:24;13.82;;;5.50;;
1400;SDS011;46518;48.842;8.926;2023-10-09T03:59:52;19.60;;;5.57;;
1400;SDS011;46518;48.842;8.926;2023-10-09T04:02:22;20.50;;;5.72;;
1400;SDS011;46518;48.842;8.926;2023-10-09T04:04:54;11.70;;;5.00;;
1400;SDS011;46518;48.842;8.926;2023-10-09T04:07:22;10.05;;;4.80;;
1400;SDS011;46518;48.842;8.926;2023-10-09T04:09:52;15.80;;;5.28;;
1400;SDS011;46518;48.842;8.926;2023-10-09T04:12:43;13.00;;;4.68;;
1400;SDS011;46518;48.842;8.926;2023-10-09T04:15:19;11.15;;;4.97;;
1400;SDS011;46518;48.842;8.926;2023-10-09T04:17:50;9.90;;;5.25;;
1400;SDS011;46518;48.842;8.926;2023-10-09T04:20:18;11.13;;;5.40;;
1400;SDS011;46518;48.842;8.926;2023-10-09T04:23:22;12.80;;;6.45;;
1400;SDS011;46518;48.842;8.926;2023-10-09T04:26:01;12.57;;;5.35;;
1400;SDS011;46518;48.842;8.926;2023-10-09T04:28:42;15.27;;;5.72;;
1400;SDS011;46518;48.842;8.926;2023-10-09T04:31:18;12.45;;;4.80;;
1400;SDS011;46518;48.842;8.926;2023-10-09T04:33:48;16.42;;;5.07;;
1400;SDS011;46518;48.842;8.926;2023-10-09T04:36:45;14.35;;;5.25;;
1400;SDS011;46518;48.842;8.926;2023-10-09T04:39:18;9.98;;;4.35;;
1400;SDS011;46518;48.842;8.926;2023-10-09T04:42:04;13.77;;;6.75;;
1400;SDS011;46518;48.842;8.926;2023-10-09T04:44:52;7.20;;;4.50;;
1400;SDS011;46518;48.842;8.926;2023-10-09T04:47:35;11.60;;;5.70;;
1400;SDS011;46518;48.842;8.926;2023-10-09T04:50:04;6.20;;;4.90;;
1400;SDS011;46518;48.842;8.926;2023-10-09T04:52:35;11.88;;;4.80;;
1400;SDS011;46518;48.842;8.926;2023-10-09T04:55:21;10.23;;;4.35;;
1400;SDS011;46518;48.842;8.926;2023-10-09T04:57:52;14.55;;;4.85;;
1400;SDS011;46518;48.842;8.926;2023-10-09T05:00:37;12.52;;;4.93;;
1400;SDS011;46518;48.842;8.926;2023-10-09T05:03:30;15.60;;;5.20;;
1400;SDS011;46518;48.842;8.926;2023-10-09T05:06:11;13.20;;;4.95;;
1400;SDS011;46518;48.842;8.926;2023-10-09T05:09:10;19.83;;;6.35;;
1400;SDS011;46518;48.842;8.926;2023-10-09T05:11:42;12.80;;;5.68;;
1400;SDS011;46518;48.842;8.926;2023-10-09T05:14:36;12.27;;;5.88;;
1400;SDS011;46518;48.842;8.926;2023-10-09T05:17:13;13.07;;;4.57;;
1400;SDS011;46518;48.842;8.926;2023-10-09T05:19:44;12.90;;;4.88;;
1400;SDS011;46518;48.842;8.926;2023-10-09T05:22:45;15.52;;;6.03;;
1400;SDS011;46518;48.842;8.926;2023-10-09T05:25:24;17.67;;;5.65;;
1400;SDS011;46518;48.842;8.926;2023-10-09T05:28:20;11.50;;;5.70;;
1400;SDS011;46518;48.842;8.926;2023-10-09T05:31:02;12.57;;;4.95;;
1400;SDS011;46518;48.842;8.926;2023-10-09T05:33:35;14.95;;;6.65;;
1400;SDS011;46518;48.842;8.926;2023-10-09T05:36:04;17.98;;;6.70;;
1400;SDS011;46518;48.842;8.926;2023-10-09T05:38:44;16.35;;;7.07;;
1400;SDS011;46518;48.842;8.926;2023-10-09T05:41:15;13.45;;;5.55;;
1400;SDS011;46518;48.842;8.926;2023-10-09T05:44:00;11.75;;;4.70;;
1400;SDS011;46518;48.842;8.926;2023-10-09T05:46:46;12.55;;;5.15;;
1400;SDS011;46518;48.842;8.926;2023-10-09T05:49:38;13.07;;;5.03;;
1400;SDS011;46518;48.842;8.926;2023-10-09T05:52:13;15.13;;;4.95;;
1400;SDS011;46518;48.842;8.926;2023-10-09T05:54:59;14.65;;;4.35;;
1400;SDS011;46518;48.842;8.926;2023-10-09T05:58:08;16.33;;;5.63;;
1400;SDS011;46518;48.842;8.926;2023-10-09T06:00:51;13.25;;;5.90;;
1400;SDS011;46518;48.842;8.926;2023-10-09T06:03:37;15.43;;;5.53;;
1400;SDS011;46518;48.842;8.926;2023-10-09T06:06:23;13.85;;;6.25;;
1400;SDS011;46518;48.842;8.926;2023-10-09T06:09:01;18.95;;;6.13;;
1400;SDS011;46518;48.842;8.926;2023-10-09T06:11:53;16.65;;;5.35;;
1400;SDS011;46518;48.842;8.926;2023-10-09T06:14:43;15.13;;;5.43;;
1400;SDS011;46518;48.842;8.926;2023-10-09T06:17:16;11.88;;;5.70;;
1400;SDS011;46518;48.842;8.926;2023-10-09T06:19:51;16.92;;;6.43;;
1400;SDS011;46518;48.842;8.926;2023-10-09T06:22:27;15.75;;;6.15;;
1400;SDS011;46518;48.842;8.926;2023-10-09T06:25:12;10.48;;;5.55;;
1400;SDS011;46518;48.842;8.926;2023-10-09T06:27:44;20.10;;;6.22;;
1400;SDS011;46518;48.842;8.926;2023-10-09T06:30:24;16.85;;;5.00;;
1400;SDS011;46518;48.842;8.926;2023-10-09T06:32:53;12.07;;;4.85;;
1400;SDS011;46518;48.842;8.926;2023-10-09T06:35:47;15.55;;;5.90;;
1400;SDS011;46518;48.842;8.926;2023-10-09T06:38:36;12.23;;;4.80;;
1400;SDS011;46518;48.842;8.926;2023-10-09T06:41:19;11.60;;;5.72;;
1400;SDS011;46518;48.842;8.926;2023-10-09T06:44:01;16.13;;;6.70;;
1400;SDS011;46518;48.842;8.926;2023-10-09T06:46:35;9.32;;;4.72;;
1400;SDS011;46518;48.842;8.926;2023-10-09T06:49:10;11.57;;;4.75;;
1400;SDS011;46518;48.842;8.926;2023-10-09T06:52:04;13.95;;;5.68;;
1400;SDS011;46518;48.842;8.926;2023-10-09T06:54:44;14.90;;;6.47;;
1400;SDS011;46518;48.842;8.926;2023-10-09T06:57:17;10.20;;;5.00;;
1400;SDS011;46518;48.842;8.926;2023-10-09T07:00:11;16.52;;;6.05;;
1400;SDS011;46518;48.842;8.926;2023-10-09T07:03:10;15.35;;;6.65;;
1400;SDS011;46518;48.842;8.926;2023-10-09T07:05:39;18.98;;;5.40;;
1400;SDS011;46518;48.842;8.926;2023-10-09T07:08:27;11.35;;;5.03;;
1400;SDS011;46518;48.842;8.926;2023-10-09T07:11:05;14.40;;;5.30;;
1400;SDS011;46518;48.842;8.926;2023-10-09T07:14:10;19.02;;;6.07;;
1400;SDS011;46518;48.842;8.926;2023-10-09T07:17:01;15.35;;;5.50;;
1400;SDS011;46518;48.842;8.926;2023-10-09T07:19:43;18.88;;;5.35;;
1400;SDS011;46518;48.842;8.926;2023-10-09T07:22:35;9.02;;;3.85;;
1400;SDS011;46518;48.842;8.926;2023-10-09T07:25:20;14.32;;;5.35;;
1400;SDS011;46518;48.842;8.926;2023-10-09T07:28:06;17.23;;;6.10;;
1400;SDS011;46518;48.842;8.926;2023-10-09T07:30:56;12.18;;;6.43;;
1400;SDS011;46518;48.842;8.926;2023-10-09T07:33:27;12.52;;;6.07;;
1400;SDS011;46518;48.842;8.926;2023-10-09T07:36:18;16.90;;;5.28;;
1400;SDS011;46518;48.842;8.926;2023-10-09T07:39:01;12.68;;;5.35;;
1400;SDS011;46518;48.842;8.926;2023-10-09T07:41:40;14.95;;;5.20;;
1400;SDS011;46518;48.842;8.926;2023-10-09T07:44:25;10.27;;;5.68;;
1400;SDS011;46518;48.842;8.926;2023-10-09T07:47:04;13.70;;;5.90;;
1400;SDS011;46518;48.842;8.926;2023-10-09T07:49:45;13.10;;;5.40;;
1400;SDS011;46518;48.842;8.926;2023-10-09T07:52:20;10.88;;;5.40;;
1400;SDS011;46518;48.842;8.926;2023-10-09T07:54:53;9.48;;;4.95;;
1400;SDS011;46518;48.842;8.926;2023-10-09T07:57:28;15.32;;;5.63;;
1400;SDS011;46518;48.842;8.926;2023-10-09T08:00:07;13.02;;;4.57;;
1400;SDS011;46518;48.842;8.926;2023-10-09T08:03:00;17.65;;;5.38;;
1400;SDS011;46518;48.842;8.926;2023-10-09T08:05:30;13.85;;;6.15;;
1400;SDS011;46518;48.842;8.926;2023-10-09T08:08:01;15.68;;;5.93;;
1400;SDS011;46518;48.842;8.926;2023-10-09T08:11:08;15.82;;;5.75;;
1400;SDS011;46518;48.842;8.926;2023-10-09T08:13:54;17.25;;;5.80;;
1400;SDS011;46518;48.842;8.926;2023-10-09T08:16:29;15.90;;;5.70;;
1400;SDS011;46518;48.842;8.926;2023-10-09T08:19:04;11.13;;;5.35;;
1400;SDS011;46518;48.842;8.926;2023-10-09T08:21:59;15.38;;;5.40;;
1400;SDS011;46518;48.842;8.926;2023-10-09T08:25:05;16.70;;;6.05;;
1400;SDS011;46518;48.842;8.926;2023-10-09T08:27:33;17.65;;;6.57;;
1400;SDS011;46518;48.842;8.926;2023-10-09T08:30:22;25.80;;;5.20;;
1400;SDS011;46518;48.842;8.926;2023-10-09T08:32:57;15.25;;;5.75;;
1400;SDS011;46518;48.842;8.926;2023-10-09T08:35:37;21.48;;;6.65;;
1400;SDS011;46518;48.842;8.926;2023-10-09T08:38:15;15.32;;;4.65;;
1400;SDS011;46518;48.842;8.926;2023-10-09T08:40:51;16.73;;;5.10;;
1400;SDS011;46518;48.842;8.926;2023-10-09T08:43:26;28.25;;;5.88;;
1400;SDS011;46518;48.842;8.926;2023-10-09T08:45:57;23.25;;;6.03;;
1400;SDS011;46518;48.842;8.926;2023-10-09T08:48:30;13.13;;;5.07;;
1400;SDS011;46518;48.842;8.926;2023-10-09T08:51:00;19.42;;;6.25;;
1400;SDS011;46518;48.842;8.926;2023-10-09T08:53:33;12.20;;;5.40;;
1400;SDS011;46518;48.842;8.926;2023-10-09T08:56:00;16.08;;;5.32;;
1400;SDS011;46518;48.842;8.926;2023-10-09T08:58:30;14.88;;;5.65;;
1400;SDS011;46518;48.842;8.926;2023-10-09T09:01:04;10.82;;;4.78;;
1400;SDS011;46518;48.842;8.926;2023-10-09T09:03:40;13.40;;;4.90;;
1400;SDS011;46518;48.842;8.926;2023-10-09T09:06:11;18.27;;;6.55;;
1400;SDS011;46518;48.842;8.926;2023-10-09T09:08:42;13.50;;;6.40;;
1400;SDS011;46518;48.842;8.926;2023-10-09T09:11:12;19.65;;;5.88;;
1400;SDS011;46518;48.842;8.926;2023-10-09T09:13:44;15.13;;;6.18;;
1400;SDS011;46518;48.842;8.926;2023-10-09T09:16:17;19.55;;;5.28;;
1400;SDS011;46518;48.842;8.926;2023-10-09T09:18:52;16.90;;;7.25;;
1400;SDS011;46518;48.842;8.926;2023-10-09T09:21:28;12.27;;;4.13;;
1400;SDS011;46518;48.842;8.926;2023-10-09T09:23:57;16.42;;;5.60;;
1400;SDS011;46518;48.842;8.926;2023-10-09T09:26:34;15.13;;;5.33;;
1400;SDS011;46518;48.842;8.926;2023-10-09T09:29:05;18.40;;;4.88;;
1400;SDS011;46518;48.842;8.926;2023-10-09T09:31:35;14.18;;;4.53;;
1400;SDS011;46518;48.842;8.926;2023-10-09T09:34:07;13.45;;;5.43;;
1400;SDS011;46518;48.842;8.926;2023-10-09T09:36:50;17.17;;;5.70;;
1400;SDS011;46518;48.842;8.926;2023-10-09T09:39:25;8.10;;;4.50;;
1400;SDS011;46518;48.842;8.926;2023-10-09T09:42:07;16.33;;;6.43;;
1400;SDS011;46518;48.842;8.926;2023-10-09T09:44:41;10.50;;;4.57;;
1400;SDS011;46518;48.842;8.926;2023-10-09T09:47:13;15.70;;;5.40;;
1400;SDS011;46518;48.842;8.926;2023-10-09T09:49:52;18.00;;;5.20;;
1400;SDS011;46518;48.842;8.926;2023-10-09T09:52:28;14.77;;;5.10;;
1400;SDS011;46518;48.842;8.926;2023-10-09T09:55:06;12.87;;;4.57;;
1400;SDS011;46518;48.842;8.926;2023-10-09T09:57:41;12.97;;;4.67;;
1400;SDS011;46518;48.842;8.926;2023-10-09T10:00:13;12.80;;;4.00;;
1400;SDS011;46518;48.842;8.926;2023-10-09T10:02:57;9.23;;;4.40;;
1400;SDS011;46518;48.842;8.926;2023-10-09T10:05:30;12.10;;;4.37;;
1400;SDS011;46518;48.842;8.926;2023-10-09T10:08:00;8.90;;;4.67;;
1400;SDS011;46518;48.842;8.926;2023-10-09T10:10:35;15.17;;;5.13;;
1400;SDS011;46518;48.842;8.926;2023-10-09T10:13:06;13.07;;;4.40;;
1400;SDS011;46518;48.842;8.926;2023-10-09T10:15:57;14.10;;;5.57;;
1400;SDS011;46518;48.842;8.926;2023-10-09T10:18:31;11.17;;;3.87;;
1400;SDS011;46518;48.842;8.926;2023-10-09T10:21:14;9.87;;;4.30;;
1400;SDS011;46518;48.842;8.926;2023-10-09T10:23:44;12.33;;;4.60;;
1400;SDS011;46518;48.842;8.926;2023-10-09T10:26:17;14.40;;;4.80;;
1400;SDS011;46518;48.842;8.926;2023-10-09T10:31:53;9.00;;;4.10;;
1400;SDS011;46518;48.842;8.926;2023-10-09T10:34:23;13.07;;;4.07;;
1400;SDS011;46518;48.842;8.926;2023-10-09T10:36:53;10.40;;;3.90;;
1400;SDS011;46518;48.842;8.926;2023-10-09T10:39:26;10.97;;;5.83;;
1400;SDS011;46518;48.842;8.926;2023-10-09T10:42:20;10.20;;;5.10;;
1400;SDS011;46518;48.842;8.926;2023-10-09T10:45:02;10.87;;;4.97;;
1400;SDS011;46518;48.842;8.926;2023-10-09T10:47:51;26.37;;;6.00;;
1400;SDS011;46518;48.842;8.926;2023-10-09T10:50:23;8.83;;;4.20;;
1400;SDS011;46518;48.842;8.926;2023-10-09T10:53:10;8.10;;;3.53;;
1400;SDS011;46518;48.842;8.926;2023-10-09T10:55:57;9.67;;;4.10;;
1400;SDS011;46518;48.842;8.926;2023-10-09T10:58:25;7.10;;;4.33;;
1400;SDS011;46518;48.842;8.926;2023-10-09T11:01:02;9.37;;;4.27;;
1400;SDS011;46518;48.842;8.926;2023-10-09T11:03:42;11.40;;;4.70;;
1400;SDS011;46518;48.842;8.926;2023-10-09T11:06:30;11.43;;;4.67;;
1400;SDS011;46518;48.842;8.926;2023-10-09T11:09:10;11.90;;;4.27;;
1400;SDS011;46518;48.842;8.926;2023-10-09T11:11:48;7.03;;;4.60;;
1400;SDS011;46518;48.842;8.926;2023-10-09T11:14:22;12.00;;;4.23;;
1400;SDS011;46518;48.842;8.926;2023-10-09T11:16:51;6.60;;;3.93;;
1400;SDS011;46518;48.842;8.926;2023-10-09T11:19:25;12.80;;;4.67;;
1400;SDS011;46518;48.842;8.926;2023-10-09T11:21:59;11.50;;;4.60;;
1400;SDS011;46518;48.842;8.926;2023-10-09T11:24:52;9.60;;;5.10;;
1400;SDS011;46518;48.842;8.926;2023-10-09T11:27:40;15.60;;;4.67;;
1400;SDS011;46518;48.842;8.926;2023-10-09T11:30:17;19.30;;;4.93;;
1400;SDS011;46518;48.842;8.926;2023-10-09T11:33:05;10.50;;;4.40;;
1400;SDS011;46518;48.842;8.926;2023-10-09T11:35:41;11.33;;;5.53;;
1400;SDS011;46518;48.842;8.926;2023-10-09T11:38:10;8.33;;;4.90;;
1400;SDS011;46518;48.842;8.926;2023-10-09T11:40:51;15.27;;;5.40;;
1400;SDS011;46518;48.842;8.926;2023-10-09T11:43:46;19.23;;;5.47;;
1400;SDS011;46518;48.842;8.926;2023-10-09T11:46:24;11.60;;;5.40;;
1400;SDS011;46518;48.842;8.926;2023-10-09T11:49:04;11.30;;;5.37;;
1400;SDS011;46518;48.842;8.926;2023-10-09T11:51:50;11.57;;;4.93;;
1400;SDS011;46518;48.842;8.926;2023-10-09T11:54:52;10.40;;;5.37;;
1400;SDS011;46518;48.842;8.926;2023-10-09T11:57:25;11.10;;;5.33;;
1400;SDS011;46518;48.842;8.926;2023-10-09T11:59:58;9.03;;;5.63;;
1400;SDS011;46518;48.842;8.926;2023-10-09T12:02:30;9.77;;;5.13;;
1400;SDS011;46518;48.842;8.926;2023-10-09T12:04:59;9.50;;;5.40;;
1400;SDS011;46518;48.842;8.926;2023-10-09T12:07:27;10.90;;;5.40;;
1400;SDS011;46518;48.842;8.926;2023-10-09T12:09:56;8.50;;;4.87;;
1400;SDS011;46518;48.842;8.926;2023-10-09T12:12:26;11.53;;;6.00;;
1400;SDS011;46518;48.842;8.926;2023-10-09T12:14:54;15.17;;;5.97;;
1400;SDS011;46518;48.842;8.926;2023-10-09T12:17:22;17.50;;;5.43;;
1400;SDS011;46518;48.842;8.926;2023-10-09T12:19:53;9.20;;;5.43;;
1400;SDS011;46518;48.842;8.926;2023-10-09T12:22:23;12.10;;;6.63;;
1400;SDS011;46518;48.842;8.926;2023-10-09T12:24:54;11.30;;;5.60;;
1400;SDS011;46518;48.842;8.926;2023-10-09T12:27:23;12.60;;;6.20;;
1400;SDS011;46518;48.842;8.926;2023-10-09T12:29:53;12.23;;;5.13;;
1400;SDS011;46518;48.842;8.926;2023-10-09T12:32:23;12.80;;;6.30;;
1400;SDS011;46518;48.842;8.926;2023-10-09T12:34:51;8.27;;;5.50;;
1400;SDS011;46518;48.842;8.926;2023-10-09T12:37:20;12.77;;;7.20;;
1400;SDS011;46518;48.842;8.926;2023-10-09T12:39:48;11.50;;;6.27;;
1400;SDS011;46518;48.842;8.926;2023-10-09T12:42:22;14.47;;;6.77;;
1400;SDS011;46518;48.842;8.926;2023-10-09T12:44:50;9.47;;;5.53;;
1400;SDS011;46518;48.842;8.926;2023-10-09T12:47:24;9.47;;;6.27;;
1400;SDS011;46518;48.842;8.926;2023-10-09T12:49:53;19.93;;;7.00;;
1400;SDS011;46518;48.842;8.926;2023-10-09T12:52:23;9.73;;;5.90;;
1400;SDS011;46518;48.842;8.926;2023-10-09T12:54:56;12.53;;;6.30;;
1400;SDS011;46518;48.842;8.926;2023-10-09T12:57:25;12.43;;;5.97;;
1400;SDS011;46518;48.842;8.926;2023-10-09T12:59:54;9.23;;;5.70;;
1400;SDS011;46518;48.842;8.926;2023-10-09T13:02:23;9.13;;;6.53;;
1400;SDS011;46518;48.842;8.926;2023-10-09T13:04:57;11.50;;;6.40;;
1400;SDS011;46518;48.842;8.926;2023-10-09T13:07:27;11.80;;;6.60;;
1400;SDS011;46518;48.842;8.926;2023-10-09T13:09:55;13.57;;;7.50;;
1400;SDS011;46518;48.842;8.926;2023-10-09T13:12:36;13.23;;;6.17;;
1400;SDS011;46518;48.842;8.926;2023-10-09T13:15:09;13.57;;;7.37;;
1400;SDS011;46518;48.842;8.926;2023-10-09T13:17:38;18.23;;;6.93;;
1400;SDS011;46518;48.842;8.926;2023-10-09T13:20:08;13.10;;;7.80;;
1400;SDS011;46518;48.842;8.926;2023-10-09T13:22:40;11.37;;;6.30;;
1400;SDS011;46518;48.842;8.926;2023-10-09T13:25:09;12.87;;;7.03;;
1400;SDS011;46518;48.842;8.926;2023-10-09T13:28:00;13.13;;;7.90;;
1400;SDS011;46518;48.842;8.926;2023-10-09T13:30:32;12.47;;;7.83;;
1400;SDS011;46518;48.842;8.926;2023-10-09T13:33:07;13.20;;;7.80;;
1400;SDS011;46518;48.842;8.926;2023-10-09T13:35:41;15.80;;;8.27;;
1400;SDS011;46518;48.842;8.926;2023-10-09T13:38:17;10.57;;;6.80;;
1400;SDS011;46518;48.842;8.926;2023-10-09T13:40:45;11.97;;;7.57;;
1400;SDS011;46518;48.842;8.926;2023-10-09T13:43:16;14.63;;;7.17;;
1400;SDS011;46518;48.842;8.926;2023-10-09T13:45:45;11.43;;;7.33;;
1400;SDS011;46518;48.842;8.926;2023-10-09T13:48:17;16.50;;;8.17;;
1400;SDS011;46518;48.842;8.926;2023-10-09T13:50:50;11.17;;;7.50;;
1400;SDS011;46518;48.842;8.926;2023-10-09T13:53:25;16.10;;;7.87;;
1400;SDS011;46518;48.842;8.926;2023-10-09T13:55:53;13.13;;;7.53;;
1400;SDS011;46518;48.842;8.926;2023-10-09T13:58:22;14.23;;;8.00;;
1400;SDS011;46518;48.842;8.926;2023-10-09T14:00:52;12.23;;;7.40;;
1400;SDS011;46518;48.842;8.926;2023-10-09T14:03:20;14.63;;;7.50;;
1400;SDS011;46518;48.842;8.926;2023-10-09T14:05:50;10.93;;;6.57;;
1400;SDS011;46518;48.842;8.926;2023-10-09T14:08:24;15.43;;;8.03;;
1400;SDS011;46518;48.842;8.926;2023-10-09T14:10:53;13.60;;;7.13;;
1400;SDS011;46518;48.842;8.926;2023-10-09T14:13:21;18.43;;;8.40;;
1400;SDS011;46518;48.842;8.926;2023-10-09T14:15:57;14.57;;;6.97;;
1400;SDS011;46518;48.842;8.926;2023-10-09T14:18:29;18.30;;;7.97;;
1400;SDS011;46518;48.842;8.926;2023-10-09T14:21:00;12.53;;;8.30;;
1400;SDS011;46518;48.842;8.926;2023-10-09T14:23:31;12.40;;;7.50;;
1400;SDS011;46518;48.842;8.926;2023-10-09T14:26:02;11.93;;;8.50;;
1400;SDS011;46518;48.842;8.926;2023-10-09T14:28:33;12.70;;;7.60;;
1400;SDS011;46518;48.842;8.926;2023-10-09T14:31:03;19.57;;;8.30;;
1400;SDS011;46518;48.842;8.926;2023-10-09T14:33:38;12.67;;;7.03;;
1400;SDS011;46518;48.842;8.926;2023-10-09T14:36:07;15.23;;;7.03;;
1400;SDS011;46518;48.842;8.926;2023-10-09T14:38:34;14.00;;;6.73;;
1400;SDS011;46518;48.842;8.926;2023-10-09T14:41:06;14.00;;;5.90;;
1400;SDS011;46518;48.842;8.926;2023-10-09T14:43:39;10.90;;;6.87;;
1400;SDS011;46518;48.842;8.926;2023-10-09T14:46:13;14.43;;;6.77;;
1400;SDS011;46518;48.842;8.926;2023-10-09T14:48:42;12.37;;;6.87;;
1400;SDS011;46518;48.842;8.926;2023-10-09T14:51:13;14.57;;;6.40;;
1400;SDS011;46518;48.842;8.926;2023-10-09T14:53:41;14.43;;;6.83;;
1400;SDS011;46518;48.842;8.926;2023-10-09T14:56:11;12.87;;;6.70;;
1400;SDS011;46518;48.842;8.926;2023-10-09T14:58:43;14.67;;;7.73;;
1400;SDS011;46518;48.842;8.926;2023-10-09T15:01:15;12.73;;;6.37;;
1400;SDS011;46518;48.842;8.926;2023-10-09T15:03:46;15.00;;;6.60;;
1400;SDS011;46518;48.842;8.926;2023-10-09T15:06:16;12.80;;;6.47;;
1400;SDS011;46518;48.842;8.926;2023-10-09T15:08:45;13.60;;;7.00;;
1400;SDS011;46518;48.842;8.926;2023-10-09T15:11:16;13.63;;;6.40;;
1400;SDS011;46518;48.842;8.926;2023-10-09T15:13:44;13.03;;;6.97;;
1400;SDS011;46518;48.842;8.926;2023-10-09T15:16:15;9.57;;;5.97;;
1400;SDS011;46518;48.842;8.926;2023-10-09T15:18:43;10.90;;;7.40;;
1400;SDS011;46518;48.842;8.926;2023-10-09T15:21:11;12.23;;;6.67;;
1400;SDS011;46518;48.842;8.926;2023-10-09T15:23:39;14.00;;;7.20;;
1400;SDS011;46518;48.842;8.926;2023-10-09T15:26:09;14.37;;;7.00;;
1400;SDS011;46518;48.842;8.926;2023-10-09T15:28:42;10.13;;;7.03;;
1400;SDS011;46518;48.842;8.926;2023-10-09T15:31:10;12.47;;;6.70;;
1400;SDS011;46518;48.842;8.926;2023-10-09T15:33:42;13.93;;;6.37;;
1400;SDS011;46518;48.842;8.926;2023-10-09T15:36:11;14.67;;;7.13;;
1400;SDS011;46518;48.842;8.926;2023-10-09T15:38:40;11.57;;;5.83;;
1400;SDS011;46518;48.842;8.926;2023-10-09T15:41:08;13.53;;;7.20;;
1400;SDS011;46518;48.842;8.926;2023-10-09T15:43:38;13.03;;;6.13;;